Time;durP1;ratioP1;P1;durP2;ratioP2;P2;SDS_P1;SDS_P2;PMS_P1;PMS_P2;Temp;Humidity;BMP_temperature;BMP_pressure;BME280_temperature;BME280_humidity;BME280_pressure;Samples;Min_cycle;Max_cycle;Signal;HPM_P1;HPM_P2
2024/01/16 00:01:16;;;;;;;6.9;4.8;;;;;;;;;;;;;
2024/01/16 00:03:44;;;;;;;7.1;4.9;;;;;;;;;;;;;
2024/01/16 00:06:09;;;;;;;6.1;4.6;;;;;;;;;;;;;
2024/01/16 00:08:35;;;;;;;7.3;4.5;;;;;;;;;;;;;
2024/01/16 00:11:00;;;;;;;6.2;4.4;;;;;;;;;;;;;
2024/01/16 00:13:27;;;;;;;7.3;4.7;;;;;;;;;;;;;
2024/01/16 00:15:52;;;;;;;6.2;4.4;;;;;;;;;;;;;
2024/01/16 00:18:18;;;;;;;7.4;5;;;;;;;;;;;;;
2024/01/16 00:20:43;;;;;;;6.6;4.9;;;;;;;;;;;;;
2024/01/16 00:23:10;;;;;;;6.1;4.2;;;;;;;;;;;;;
2024/01/16 00:25:34;;;;;;;6.9;5.1;;;;;;;;;;;;;
2024/01/16 00:28:02;;;;;;;6.6;4.5;;;;;;;;;;;;;
2024/01/16 00:30:24;;;;;;;7.9;5.2;;;;;;;;;;;;;
2024/01/16 00:32:49;;;;;;;7.2;5;;;;;;;;;;;;;
2024/01/16 00:35:14;;;;;;;6.7;4.6;;;;;;;;;;;;;
2024/01/16 00:37:39;;;;;;;7.4;4.9;;;;;;;;;;;;;
2024/01/16 00:40:08;;;;;;;7.9;5;;;;;;;;;;;;;
2024/01/16 00:42:33;;;;;;;6.9;5.1;;;;;;;;;;;;;
2024/01/16 00:44:59;;;;;;;7.2;4.9;;;;;;;;;;;;;
2024/01/16 00:47:25;;;;;;;7.4;5.2;;;;;;;;;;;;;
2024/01/16 00:49:51;;;;;;;11.1;5.5;;;;;;;;;;;;;
2024/01/16 00:52:15;;;;;;;7.6;4.8;;;;;;;;;;;;;
2024/01/16 00:54:41;;;;;;;8;5.3;;;;;;;;;;;;;
2024/01/16 00:57:06;;;;;;;7.6;4.9;;;;;;;;;;;;;
2024/01/16 00:59:35;;;;;;;7.3;4.9;;;;;;;;;;;;;
2024/01/16 01:02:05;;;;;;;7.9;5.4;;;;;;;;;;;;;
2024/01/16 01:04:34;;;;;;;5.8;4.9;;;;;;;;;;;;;
2024/01/16 01:07:04;;;;;;;7.4;4.9;;;;;;;;;;;;;
2024/01/16 01:09:32;;;;;;;7.6;5.2;;;;;;;;;;;;;
2024/01/16 01:11:57;;;;;;;7.4;4.8;;;;;;;;;;;;;
2024/01/16 01:14:29;;;;;;;8.1;4.9;;;;;;;;;;;;;
2024/01/16 01:16:54;;;;;;;5.5;4.4;;;;;;;;;;;;;
2024/01/16 01:19:19;;;;;;;7.2;4.6;;;;;;;;;;;;;
2024/01/16 01:21:54;;;;;;;6.2;4.6;;;;;;;;;;;;;
2024/01/16 01:24:28;;;;;;;6.2;4.6;;;;;;;;;;;;;
2024/01/16 01:26:57;;;;;;;8.3;4.6;;;;;;;;;;;;;
2024/01/16 01:29:26;;;;;;;8.1;4.5;;;;;;;;;;;;;
2024/01/16 01:31:49;;;;;;;6.5;4.5;;;;;;;;;;;;;
2024/01/16 01:34:15;;;;;;;7.3;5;;;;;;;;;;;;;
2024/01/16 01:36:40;;;;;;;6.9;4.4;;;;;;;;;;;;;
2024/01/16 01:39:07;;;;;;;7.1;4.6;;;;;;;;;;;;;
2024/01/16 01:41:32;;;;;;;6.1;4.6;;;;;;;;;;;;;
2024/01/16 01:43:57;;;;;;;5.6;4.5;;;;;;;;;;;;;
2024/01/16 01:46:24;;;;;;;6.4;4.4;;;;;;;;;;;;;
2024/01/16 01:48:49;;;;;;;6.2;4.4;;;;;;;;;;;;;
2024/01/16 01:51:14;;;;;;;7.2;4.4;;;;;;;;;;;;;
2024/01/16 01:53:43;;;;;;;7.1;4.5;;;;;;;;;;;;;
2024/01/16 01:56:08;;;;;;;7.2;4.6;;;;;;;;;;;;;
2024/01/16 01:58:42;;;;;;;8.1;5;;;;;;;;;;;;;
2024/01/16 02:01:08;;;;;;;7;4.8;;;;;;;;;;;;;
2024/01/16 02:03:34;;;;;;;8.1;4.9;;;;;;;;;;;;;
2024/01/16 02:05:59;;;;;;;7.9;4.8;;;;;;;;;;;;;
2024/01/16 02:08:27;;;;;;;8.5;4.6;;;;;;;;;;;;;
2024/01/16 02:11:01;;;;;;;6.8;4.7;;;;;;;;;;;;;
2024/01/16 02:13:27;;;;;;;8.1;4.6;;;;;;;;;;;;;
2024/01/16 02:15:53;;;;;;;7.8;4.8;;;;;;;;;;;;;
2024/01/16 02:18:24;;;;;;;7.4;5;;;;;;;;;;;;;
2024/01/16 02:20:52;;;;;;;7.6;4.7;;;;;;;;;;;;;
2024/01/16 02:23:17;;;;;;;8;4.6;;;;;;;;;;;;;
2024/01/16 02:25:44;;;;;;;7;5;;;;;;;;;;;;;
2024/01/16 02:28:09;;;;;;;5.8;4.4;;;;;;;;;;;;;
2024/01/16 02:30:35;;;;;;;7.6;4.6;;;;;;;;;;;;;
2024/01/16 02:33:00;;;;;;;7.7;5.2;;;;;;;;;;;;;
2024/01/16 02:35:28;;;;;;;6.3;4.6;;;;;;;;;;;;;
2024/01/16 02:37:53;;;;;;;7.9;5;;;;;;;;;;;;;
2024/01/16 02:40:19;;;;;;;8.5;5.2;;;;;;;;;;;;;
2024/01/16 02:42:44;;;;;;;6.3;4.5;;;;;;;;;;;;;
2024/01/16 02:45:17;;;;;;;7.7;5.2;;;;;;;;;;;;;
2024/01/16 02:47:47;;;;;;;7.8;5.1;;;;;;;;;;;;;
2024/01/16 02:50:16;;;;;;;10.7;5.8;;;;;;;;;;;;;
2024/01/16 02:52:41;;;;;;;7;5;;;;;;;;;;;;;
2024/01/16 02:55:14;;;;;;;8.6;5.3;;;;;;;;;;;;;
2024/01/16 02:57:42;;;;;;;9.2;5.5;;;;;;;;;;;;;
2024/01/16 03:00:07;;;;;;;7.6;5.2;;;;;;;;;;;;;
2024/01/16 03:02:40;;;;;;;7.8;5.1;;;;;;;;;;;;;
2024/01/16 03:05:14;;;;;;;7.2;4.9;;;;;;;;;;;;;
2024/01/16 03:07:48;;;;;;;8;5.1;;;;;;;;;;;;;
2024/01/16 03:10:18;;;;;;;7.7;5.3;;;;;;;;;;;;;
2024/01/16 03:12:46;;;;;;;8.7;5.6;;;;;;;;;;;;;
2024/01/16 03:15:15;;;;;;;7.3;5.1;;;;;;;;;;;;;
2024/01/16 03:17:41;;;;;;;8.2;5.1;;;;;;;;;;;;;
2024/01/16 03:20:16;;;;;;;7.9;5.3;;;;;;;;;;;;;
2024/01/16 03:22:44;;;;;;;9.7;5.7;;;;;;;;;;;;;
2024/01/16 03:25:18;;;;;;;8;5;;;;;;;;;;;;;
2024/01/16 03:27:48;;;;;;;7.9;5.3;;;;;;;;;;;;;
2024/01/16 03:30:13;;;;;;;8.6;5.4;;;;;;;;;;;;;
2024/01/16 03:32:43;;;;;;;8.8;5;;;;;;;;;;;;;
2024/01/16 03:35:18;;;;;;;9.8;5.6;;;;;;;;;;;;;
2024/01/16 03:37:43;;;;;;;12.4;7.5;;;;;;;;;;;;;
2024/01/16 03:40:11;;;;;;;10.9;6.7;;;;;;;;;;;;;
2024/01/16 03:42:35;;;;;;;8.5;5.4;;;;;;;;;;;;;
2024/01/16 03:45:04;;;;;;;9.8;5.7;;;;;;;;;;;;;
2024/01/16 03:47:39;;;;;;;9.3;5.4;;;;;;;;;;;;;
2024/01/16 03:50:08;;;;;;;8.7;5.3;;;;;;;;;;;;;
2024/01/16 03:52:37;;;;;;;7.2;5;;;;;;;;;;;;;
2024/01/16 03:55:07;;;;;;;6.7;4.9;;;;;;;;;;;;;
2024/01/16 03:57:36;;;;;;;8.8;5.1;;;;;;;;;;;;;
2024/01/16 04:00:06;;;;;;;9;5.5;;;;;;;;;;;;;
2024/01/16 04:02:42;;;;;;;7.3;5.5;;;;;;;-1.23;83.35742;931.1156;;;;
2024/01/16 04:05:12;;;;;;;7.9;5.1;;;;;;;-1.23;83.28125;931.0901;;;;
2024/01/16 04:07:50;;;;;;;7.6;5.5;;;;;;;-1.23;83.65723;931.1165;;;;
2024/01/16 04:10:28;;;;;;;8.3;5.3;;;;;;;-1.24;83.44629;931.0959;;;;
2024/01/16 04:13:07;;;;;;;8.6;5.5;;;;;;;-1.29;83.62402;931.022;;;;
2024/01/16 04:15:34;;;;;;;7.5;5.2;;;;;;;-1.31;83.76367;931.0787;;;;
2024/01/16 04:18:08;;;;;;;9.5;5.5;;;;;;;-1.3;83.46484;931.0642;;;;
2024/01/16 04:20:40;;;;;;;6.8;5;;;;;;;-1.36;83.64355;931.0378;;;;
2024/01/16 04:23:05;;;;;;;9.1;5.4;;;;;;;-1.42;83.75293;931.0372;;;;
2024/01/16 04:25:45;;;;;;;7;4.8;;;;;;;-1.43;83.15137;931.0025;;;;
2024/01/16 04:28:10;;;;;;;6.4;4.7;;;;;;;;;;;;;
2024/01/16 04:30:38;;;;;;;6.4;4.9;;;;;;;;;;;;;
2024/01/16 04:33:08;;;;;;;7.8;5.1;;;;;;;;;;;;;
2024/01/16 04:35:38;;;;;;;7.7;5;;;;;;;;;;;;;
2024/01/16 04:38:07;;;;;;;7.8;5.4;;;;;;;;;;;;;
2024/01/16 04:40:31;;;;;;;7.7;5.4;;;;;;;;;;;;;
2024/01/16 04:42:57;;;;;;;9;5.9;;;;;;;;;;;;;
2024/01/16 04:45:30;;;;;;;9.6;5.8;;;;;;;;;;;;;
2024/01/16 04:48:04;;;;;;;7.8;5.3;;;;;;;;;;;;;
2024/01/16 04:50:33;;;;;;;7.9;5.5;;;;;;;;;;;;;
2024/01/16 04:53:03;;;;;;;9.2;5.5;;;;;;;;;;;;;
2024/01/16 04:55:28;;;;;;;7.4;5.3;;;;;;;;;;;;;
2024/01/16 04:57:57;;;;;;;9;6.1;;;;;;;;;;;;;
2024/01/16 05:00:22;;;;;;;8.9;5.8;;;;;;;;;;;;;
2024/01/16 05:02:51;;;;;;;7.6;5.3;;;;;;;;;;;;;
2024/01/16 05:05:16;;;;;;;7;5.3;;;;;;;;;;;;;
2024/01/16 05:07:42;;;;;;;7.6;5.5;;;;;;;;;;;;;
2024/01/16 05:10:08;;;;;;;9.3;6.1;;;;;;;;;;;;;
2024/01/16 05:12:36;;;;;;;10.9;7.3;;;;;;;;;;;;;
2024/01/16 05:15:07;;;;;;;9.2;6.3;;;;;;;;;;;;;
2024/01/16 05:17:32;;;;;;;10.4;6.9;;;;;;;;;;;;;
2024/01/16 05:20:01;;;;;;;14.7;11.1;;;;;;;;;;;;;
2024/01/16 05:22:27;;;;;;;15.8;9.4;;;;;;;;;;;;;
2024/01/16 05:24:55;;;;;;;7.1;5.1;;;;;;;;;;;;;
2024/01/16 05:27:20;;;;;;;7.5;5.3;;;;;;;;;;;;;
2024/01/16 05:29:48;;;;;;;8.4;5.5;;;;;;;;;;;;;
2024/01/16 05:32:13;;;;;;;8.5;6.1;;;;;;;;;;;;;
2024/01/16 05:34:41;;;;;;;9.5;6.1;;;;;;;;;;;;;
2024/01/16 05:37:12;;;;;;;10.7;6.3;;;;;;;;;;;;;
2024/01/16 05:39:38;;;;;;;9;6.1;;;;;;;;;;;;;
2024/01/16 05:42:06;;;;;;;12.9;7.9;;;;;;;;;;;;;
2024/01/16 05:44:37;;;;;;;29.4;12.7;;;;;;;;;;;;;
2024/01/16 05:47:08;;;;;;;52.9;23.1;;;;;;;;;;;;;
2024/01/16 05:49:41;;;;;;;51.1;23;;;;;;;;;;;;;
2024/01/16 05:52:05;;;;;;;38.4;18.1;;;;;;;;;;;;;
2024/01/16 05:54:33;;;;;;;30.5;16;;;;;;;;;;;;;
2024/01/16 05:56:58;;;;;;;31.6;16.4;;;;;;;;;;;;;
2024/01/16 05:59:25;;;;;;;34.1;17.4;;;;;;;;;;;;;
2024/01/16 06:01:51;;;;;;;33;17.7;;;;;;;;;;;;;
2024/01/16 06:04:19;;;;;;;35.6;19;;;;;;;;;;;;;
2024/01/16 06:06:45;;;;;;;32.8;17.4;;;;;;;;;;;;;
2024/01/16 06:09:13;;;;;;;31.9;15.7;;;;;;;;;;;;;
2024/01/16 06:11:38;;;;;;;26.4;14.5;;;;;;;;;;;;;
2024/01/16 06:14:05;;;;;;;23.8;13.2;;;;;;;;;;;;;
2024/01/16 06:16:30;;;;;;;17.4;10.5;;;;;;;;;;;;;
2024/01/16 06:18:57;;;;;;;14.1;8.6;;;;;;;;;;;;;
2024/01/16 06:21:23;;;;;;;18.1;11.1;;;;;;;;;;;;;
2024/01/16 06:23:50;;;;;;;17;11;;;;;;;;;;;;;
2024/01/16 06:26:16;;;;;;;14.1;10.5;;;;;;;;;;;;;
2024/01/16 06:28:43;;;;;;;16.1;10.6;;;;;;;;;;;;;
2024/01/16 06:31:07;;;;;;;13.2;7.6;;;;;;;;;;;;;
2024/01/16 06:33:33;;;;;;;10.6;7.2;;;;;;;;;;;;;
2024/01/16 06:35:58;;;;;;;10.4;7.1;;;;;;;;;;;;;
2024/01/16 06:38:27;;;;;;;12;7.6;;;;;;;;;;;;;
2024/01/16 06:40:57;;;;;;;110.5;53.6;;;;;;;;;;;;;
2024/01/16 06:43:22;;;;;;;35.4;18.5;;;;;;;;;;;;;
2024/01/16 06:45:50;;;;;;;19.1;11.2;;;;;;;;;;;;;
2024/01/16 06:48:15;;;;;;;43.1;22.9;;;;;;;;;;;;;
2024/01/16 06:50:44;;;;;;;18;10.9;;;;;;;;;;;;;
2024/01/16 06:53:09;;;;;;;143.3;119.1;;;;;;;;;;;;;
2024/01/16 06:55:36;;;;;;;19;13.7;;;;;;;;;;;;;
2024/01/16 06:58:01;;;;;;;14.1;9.3;;;;;;;;;;;;;
2024/01/16 07:00:27;;;;;;;16.6;10.4;;;;;;;;;;;;;
2024/01/16 07:02:51;;;;;;;14.2;9.5;;;;;;;;;;;;;
2024/01/16 07:05:18;;;;;;;17.8;11;;;;;;;;;;;;;
2024/01/16 07:07:44;;;;;;;31;18.2;;;;;;;;;;;;;
2024/01/16 07:10:13;;;;;;;16.3;11.2;;;;;;;;;;;;;
2024/01/16 07:12:35;;;;;;;14.7;9.6;;;;;;;;;;;;;
2024/01/16 07:15:03;;;;;;;16.1;10.5;;;;;;;;;;;;;
2024/01/16 07:17:30;;;;;;;20.6;12.2;;;;;;;;;;;;;
2024/01/16 07:19:53;;;;;;;34.7;18.9;;;;;;;;;;;;;
2024/01/16 07:22:21;;;;;;;20.5;13.5;;;;;;;;;;;;;
2024/01/16 07:24:46;;;;;;;19.2;13.3;;;;;;;;;;;;;
2024/01/16 07:27:14;;;;;;;16.7;11.9;;;;;;;;;;;;;
2024/01/16 07:29:39;;;;;;;16.5;11;;;;;;;;;;;;;
2024/01/16 07:32:10;;;;;;;17.7;11.7;;;;;;;;;;;;;
2024/01/16 07:34:46;;;;;;;15.6;11.3;;;;;;;;;;;;;
2024/01/16 07:37:04;;;;;;;15.7;9.5;;;;;;;;;;;;;
2024/01/16 07:39:28;;;;;;;55;25.5;;;;;;;;;;;;;
2024/01/16 07:41:55;;;;;;;22.7;11.9;;;;;;;;;;;;;
2024/01/16 07:44:20;;;;;;;21.4;13.2;;;;;;;;;;;;;
2024/01/16 07:46:49;;;;;;;17.3;12.2;;;;;;;;;;;;;
2024/01/16 07:49:19;;;;;;;18.9;12.3;;;;;;;;;;;;;
2024/01/16 07:51:45;;;;;;;16.6;11.3;;;;;;;;;;;;;
2024/01/16 07:54:11;;;;;;;19.8;12.3;;;;;;;;;;;;;
2024/01/16 07:56:35;;;;;;;18.2;12.1;;;;;;;;;;;;;
2024/01/16 07:59:01;;;;;;;14.4;9.8;;;;;;;;;;;;;
2024/01/16 08:01:26;;;;;;;13.3;8.9;;;;;;;;;;;;;
2024/01/16 08:03:56;;;;;;;11.9;8.3;;;;;;;;;;;;;
2024/01/16 08:06:21;;;;;;;46.6;29.6;;;;;;;;;;;;;
2024/01/16 08:08:50;;;;;;;30.1;18.5;;;;;;;;;;;;;
2024/01/16 08:11:19;;;;;;;13.2;8.4;;;;;;;;;;;;;
2024/01/16 08:13:45;;;;;;;12;8.4;;;;;;;;;;;;;
2024/01/16 08:16:15;;;;;;;13.6;9.2;;;;;;;;;;;;;
2024/01/16 08:18:41;;;;;;;13.2;9.3;;;;;;;;;;;;;
2024/01/16 08:21:07;;;;;;;14.5;8.6;;;;;;;;;;;;;
2024/01/16 08:23:35;;;;;;;14.2;8.9;;;;;;;;;;;;;
2024/01/16 08:26:00;;;;;;;11.6;7.7;;;;;;;;;;;;;
2024/01/16 08:28:27;;;;;;;12.9;8.3;;;;;;;;;;;;;
2024/01/16 08:30:53;;;;;;;12.2;7.9;;;;;;;;;;;;;
2024/01/16 08:33:21;;;;;;;12.9;8.5;;;;;;;;;;;;;
2024/01/16 08:35:52;;;;;;;10.2;7.8;;;;;;;;;;;;;
2024/01/16 08:38:23;;;;;;;11.4;7.2;;;;;;;;;;;;;
2024/01/16 08:40:53;;;;;;;17;9.8;;;;;;;;;;;;;
2024/01/16 08:43:23;;;;;;;16.4;9.6;;;;;;;;;;;;;
2024/01/16 08:45:52;;;;;;;13.7;8.8;;;;;;;;;;;;;
2024/01/16 08:48:17;;;;;;;14.6;9.1;;;;;;;;;;;;;
2024/01/16 08:50:47;;;;;;;16;9.2;;;;;;;;;;;;;
2024/01/16 08:53:11;;;;;;;12.1;7.7;;;;;;;;;;;;;
2024/01/16 08:55:38;;;;;;;14.4;8.5;;;;;;;;;;;;;
2024/01/16 08:58:03;;;;;;;12.7;8.6;;;;;;;;;;;;;
2024/01/16 09:00:31;;;;;;;15.4;9.9;;;;;;;;;;;;;
2024/01/16 09:02:57;;;;;;;14.7;9.2;;;;;;;;;;;;;
2024/01/16 09:05:26;;;;;;;13.4;8.9;;;;;;;;;;;;;
2024/01/16 09:07:50;;;;;;;12.3;8;;;;;;;;;;;;;
2024/01/16 09:10:18;;;;;;;9.9;7.2;;;;;;;;;;;;;
2024/01/16 09:12:43;;;;;;;9.9;6.3;;;;;;;;;;;;;
2024/01/16 09:15:09;;;;;;;8.5;5.5;;;;;;;;;;;;;
2024/01/16 09:17:34;;;;;;;8.8;5.6;;;;;;;;;;;;;
2024/01/16 09:20:01;;;;;;;7.6;5.7;;;;;;;;;;;;;
2024/01/16 09:22:27;;;;;;;7.5;5.3;;;;;;;;;;;;;
2024/01/16 09:24:52;;;;;;;8.2;5.5;;;;;;;;;;;;;
2024/01/16 09:27:17;;;;;;;9;5.3;;;;;;;;;;;;;
2024/01/16 09:29:44;;;;;;;6.8;4.7;;;;;;;;;;;;;
2024/01/16 09:32:09;;;;;;;7.5;5;;;;;;;;;;;;;
2024/01/16 09:34:36;;;;;;;6;4.5;;;;;;;;;;;;;
2024/01/16 09:37:02;;;;;;;7.1;4.8;;;;;;;;;;;;;
2024/01/16 09:39:30;;;;;;;6.8;4.5;;;;;;;;;;;;;
2024/01/16 09:41:55;;;;;;;7.4;4.6;;;;;;;;;;;;;
2024/01/16 09:44:21;;;;;;;7;4.7;;;;;;;;;;;;;
2024/01/16 09:46:48;;;;;;;9;5.2;;;;;;;;;;;;;
2024/01/16 09:49:14;;;;;;;7.8;4.7;;;;;;;;;;;;;
2024/01/16 09:51:39;;;;;;;6.8;4.8;;;;;;;;;;;;;
2024/01/16 09:54:08;;;;;;;8.7;5.3;;;;;;;;;;;;;
2024/01/16 09:56:30;;;;;;;5.1;4;;;;;;;;;;;;;
2024/01/16 09:58:57;;;;;;;5.7;3.9;;;;;;;;;;;;;
2024/01/16 10:01:22;;;;;;;6.8;4.2;;;;;;;;;;;;;
2024/01/16 10:03:47;;;;;;;5.6;3.8;;;;;;;;;;;;;
2024/01/16 10:06:13;;;;;;;5.3;3.7;;;;;;;;;;;;;
2024/01/16 10:08:38;;;;;;;6.9;4;;;;;;;;;;;;;
2024/01/16 10:11:03;;;;;;;6.3;3.4;;;;;;;;;;;;;
2024/01/16 10:13:31;;;;;;;3.9;3;;;;;;;;;;;;;
2024/01/16 10:15:56;;;;;;;4.6;3.1;;;;;;;;;;;;;
2024/01/16 10:18:24;;;;;;;4.2;3.4;;;;;;;;;;;;;
2024/01/16 10:20:48;;;;;;;4.5;3.4;;;;;;;;;;;;;
2024/01/16 10:23:16;;;;;;;5;3.8;;;;;;;;;;;;;
2024/01/16 10:25:41;;;;;;;5.3;3.4;;;;;;;;;;;;;
2024/01/16 10:28:07;;;;;;;4.7;3.7;;;;;;;;;;;;;
2024/01/16 10:30:31;;;;;;;3.8;3.2;;;;;;;;;;;;;
2024/01/16 10:32:57;;;;;;;5.2;3.9;;;;;;;;;;;;;
2024/01/16 10:35:23;;;;;;;5.7;4.1;;;;;;;;;;;;;
2024/01/16 10:37:51;;;;;;;6.7;3.8;;;;;;;;;;;;;
2024/01/16 10:40:16;;;;;;;8;5.5;;;;;;;;;;;;;
2024/01/16 10:42:46;;;;;;;6.6;4.5;;;;;;;;;;;;;
2024/01/16 10:45:10;;;;;;;5.4;3.9;;;;;;;;;;;;;
2024/01/16 10:47:38;;;;;;;5;3.6;;;;;;;;;;;;;
2024/01/16 10:50:03;;;;;;;6.1;4;;;;;;;;;;;;;
2024/01/16 10:52:28;;;;;;;6.7;4.4;;;;;;;;;;;;;
2024/01/16 10:54:56;;;;;;;4.5;3.1;;;;;;;;;;;;;
2024/01/16 10:57:22;;;;;;;4.7;3.3;;;;;;;;;;;;;
2024/01/16 10:59:48;;;;;;;6;3.2;;;;;;;;;;;;;
2024/01/16 11:02:13;;;;;;;4.8;3.5;;;;;;;;;;;;;
2024/01/16 11:04:40;;;;;;;3.9;2.9;;;;;;;;;;;;;
2024/01/16 11:07:05;;;;;;;3.5;2.5;;;;;;;;;;;;;
2024/01/16 11:09:30;;;;;;;4.8;3;;;;;;;;;;;;;
2024/01/16 11:11:55;;;;;;;5;2.8;;;;;;;;;;;;;
2024/01/16 11:14:23;;;;;;;3.5;2.9;;;;;;;;;;;;;
2024/01/16 11:16:47;;;;;;;5.4;3;;;;;;;;;;;;;
2024/01/16 11:19:15;;;;;;;4.2;3.4;;;;;;;;;;;;;
2024/01/16 11:21:40;;;;;;;4.8;3.9;;;;;;;;;;;;;
2024/01/16 11:24:06;;;;;;;4.8;2.7;;;;;;;;;;;;;
2024/01/16 11:26:32;;;;;;;4.2;2.8;;;;;;;;;;;;;
2024/01/16 11:29:00;;;;;;;5.2;3.1;;;;;;;;;;;;;
2024/01/16 11:31:25;;;;;;;5.4;3.1;;;;;;;;;;;;;
2024/01/16 11:33:53;;;;;;;4.8;3;;;;;;;;;;;;;
2024/01/16 11:36:18;;;;;;;4.4;3;;;;;;;;;;;;;
2024/01/16 11:38:43;;;;;;;6.2;3.2;;;;;;;;;;;;;
2024/01/16 11:41:08;;;;;;;6.7;3.9;;;;;;;;;;;;;
2024/01/16 11:43:33;;;;;;;5.8;4.1;;;;;;;;;;;;;
2024/01/16 11:46:01;;;;;;;6;3.6;;;;;;;;;;;;;
2024/01/16 11:48:26;;;;;;;6.3;4.1;;;;;;;;;;;;;
2024/01/16 11:50:51;;;;;;;15.9;8;;;;;;;;;;;;;
2024/01/16 11:53:18;;;;;;;8.3;5.2;;;;;;;;;;;;;
2024/01/16 11:55:43;;;;;;;4.3;3;;;;;;;;;;;;;
2024/01/16 11:58:08;;;;;;;5.4;3.8;;;;;;;;;;;;;
2024/01/16 12:00:33;;;;;;;5;3;;;;;;;;;;;;;
2024/01/16 12:02:58;;;;;;;4.4;3.1;;;;;;;;;;;;;
2024/01/16 12:05:27;;;;;;;4.4;3;;;;;;;;;;;;;
2024/01/16 12:07:52;;;;;;;4.8;3.2;;;;;;;;;;;;;
2024/01/16 12:10:18;;;;;;;4.7;3;;;;;;;;;;;;;
2024/01/16 12:12:43;;;;;;;4.2;3.1;;;;;;;;;;;;;
2024/01/16 12:15:09;;;;;;;3.6;2.9;;;;;;;;;;;;;
2024/01/16 12:17:39;;;;;;;4.1;3.3;;;;;;;;;;;;;
2024/01/16 12:20:05;;;;;;;5.1;3.5;;;;;;;;;;;;;
2024/01/16 12:22:30;;;;;;;6.4;3.8;;;;;;;;;;;;;
2024/01/16 12:24:55;;;;;;;4.2;3.8;;;;;;;;;;;;;
2024/01/16 12:27:21;;;;;;;4.1;3.1;;;;;;;;;;;;;
2024/01/16 12:29:48;;;;;;;6;3.6;;;;;;;;;;;;;
2024/01/16 12:32:14;;;;;;;5;3.7;;;;;;;;;;;;;
2024/01/16 12:34:38;;;;;;;5.4;3.2;;;;;;;;;;;;;
2024/01/16 12:37:05;;;;;;;3.6;3.2;;;;;;;;;;;;;
2024/01/16 12:39:31;;;;;;;4.8;3.2;;;;;;;;;;;;;
2024/01/16 12:41:59;;;;;;;4.1;3.1;;;;;;;;;;;;;
2024/01/16 12:44:33;;;;;;;5.1;3.1;;;;;;;;;;;;;
2024/01/16 12:47:01;;;;;;;5.5;3.1;;;;;;;;;;;;;
2024/01/16 12:49:24;;;;;;;4.5;3.1;;;;;;;;;;;;;
2024/01/16 12:51:51;;;;;;;4;2.8;;;;;;;;;;;;;
2024/01/16 12:54:16;;;;;;;3.6;2.5;;;;;;;;;;;;;
2024/01/16 12:56:41;;;;;;;3.9;2.7;;;;;;;;;;;;;
2024/01/16 12:59:06;;;;;;;4.2;3.4;;;;;;;;;;;;;
2024/01/16 13:01:32;;;;;;;3.6;2.7;;;;;;;;;;;;;
2024/01/16 13:03:59;;;;;;;3.8;2.9;;;;;;;;;;;;;
2024/01/16 13:06:22;;;;;;;3.6;3;;;;;;;;;;;;;
2024/01/16 13:08:48;;;;;;;4.5;3.2;;;;;;;;;;;;;
2024/01/16 13:11:15;;;;;;;6.1;3.4;;;;;;;;;;;;;
2024/01/16 13:13:38;;;;;;;5.3;3.4;;;;;;;;;;;;;
2024/01/16 13:16:05;;;;;;;4.9;3.6;;;;;;;;;;;;;
2024/01/16 13:18:28;;;;;;;4.3;3.2;;;;;;;;;;;;;
2024/01/16 13:20:55;;;;;;;4.8;3.1;;;;;;;;;;;;;
2024/01/16 13:23:20;;;;;;;6.1;3.3;;;;;;;;;;;;;
2024/01/16 13:25:51;;;;;;;4.8;3.4;;;;;;;;;;;;;
2024/01/16 13:28:16;;;;;;;6.9;3.7;;;;;;;;;;;;;
2024/01/16 13:30:42;;;;;;;3.8;3.4;;;;;;;;;;;;;
2024/01/16 13:33:10;;;;;;;4.7;3.2;;;;;;;;;;;;;
2024/01/16 13:35:35;;;;;;;3.8;3.2;;;;;;;;;;;;;
2024/01/16 13:38:03;;;;;;;4.9;3.5;;;;;;;;;;;;;
2024/01/16 13:40:27;;;;;;;5;4;;;;;;;;;;;;;
2024/01/16 13:42:53;;;;;;;5.9;4.2;;;;;;;;;;;;;
2024/01/16 13:45:18;;;;;;;6.8;3.8;;;;;;;;;;;;;
2024/01/16 13:47:44;;;;;;;4.4;3.5;;;;;;;;;;;;;
2024/01/16 13:50:09;;;;;;;5.4;3.9;;;;;;;;;;;;;
2024/01/16 13:52:39;;;;;;;17.2;8.9;;;;;;;;;;;;;
2024/01/16 13:55:10;;;;;;;24.9;12.9;;;;;;;;;;;;;
2024/01/16 13:57:38;;;;;;;16.5;9.3;;;;;;;;;;;;;
2024/01/16 14:00:02;;;;;;;45.5;24.8;;;;;;;;;;;;;
2024/01/16 14:02:32;;;;;;;10.9;7.8;;;;;;;;;;;;;
2024/01/16 14:04:59;;;;;;;4.4;3.2;;;;;;;;;;;;;
2024/01/16 14:07:25;;;;;;;4.1;3.2;;;;;;;;;;;;;
2024/01/16 14:09:52;;;;;;;4.1;3;;;;;;;;;;;;;
2024/01/16 14:12:18;;;;;;;4.6;3;;;;;;;;;;;;;
2024/01/16 14:14:47;;;;;;;3;2.7;;;;;;;;;;;;;
2024/01/16 14:17:10;;;;;;;3.3;2.9;;;;;;;;;;;;;
2024/01/16 14:19:37;;;;;;;4.2;3.2;;;;;;;;;;;;;
2024/01/16 14:22:02;;;;;;;4.9;2.8;;;;;;;;;;;;;
2024/01/16 14:24:28;;;;;;;5.6;3.5;;;;;;;;;;;;;
2024/01/16 14:26:53;;;;;;;5.4;4;;;;;;;;;;;;;
2024/01/16 14:29:19;;;;;;;5.4;3.8;;;;;;;;;;;;;
2024/01/16 14:31:48;;;;;;;8.6;6.2;;;;;;;;;;;;;
2024/01/16 14:34:09;;;;;;;11.3;7;;;;;;;;;;;;;
2024/01/16 14:36:34;;;;;;;11.1;7.1;;;;;;;;;;;;;
2024/01/16 14:38:59;;;;;;;10.2;7.2;;;;;;;;;;;;;
2024/01/16 14:41:26;;;;;;;10.8;7.8;;;;;;;;;;;;;
2024/01/16 14:43:51;;;;;;;12.9;8.5;;;;;;;;;;;;;
2024/01/16 14:46:19;;;;;;;14.8;9.4;;;;;;;;;;;;;
2024/01/16 14:48:44;;;;;;;24.1;11.3;;;;;;;;;;;;;
2024/01/16 14:51:10;;;;;;;19.7;11.8;;;;;;;;;;;;;
2024/01/16 14:53:35;;;;;;;19.7;11.5;;;;;;;;;;;;;
2024/01/16 14:56:00;;;;;;;18.5;10.6;;;;;;;;;;;;;
2024/01/16 14:58:25;;;;;;;17.2;10.5;;;;;;;;;;;;;
2024/01/16 15:00:53;;;;;;;18.4;10.2;;;;;;;;;;;;;
2024/01/16 15:03:18;;;;;;;14;9.6;;;;;;;;;;;;;
2024/01/16 15:05:44;;;;;;;12.6;8.3;;;;;;;;;;;;;
2024/01/16 15:08:10;;;;;;;12.8;7.8;;;;;;;;;;;;;
2024/01/16 15:10:37;;;;;;;11.5;7.4;;;;;;;;;;;;;
2024/01/16 15:13:02;;;;;;;12.2;7.9;;;;;;;;;;;;;
2024/01/16 15:15:32;;;;;;;12.7;8.6;;;;;;;;;;;;;
2024/01/16 15:18:03;;;;;;;13.7;8.4;;;;;;;;;;;;;
2024/01/16 15:20:26;;;;;;;16;10;;;;;;;;;;;;;
2024/01/16 15:22:53;;;;;;;17.1;10.7;;;;;;;;;;;;;
2024/01/16 15:25:21;;;;;;;18.6;11.2;;;;;;;;;;;;;
2024/01/16 15:27:43;;;;;;;17.1;10.9;;;;;;;;;;;;;
2024/01/16 15:30:13;;;;;;;14.5;9.7;;;;;;;;;;;;;
2024/01/16 15:32:39;;;;;;;16.1;11.3;;;;;;;;;;;;;
2024/01/16 15:35:06;;;;;;;18.5;12.3;;;;;;;;;;;;;
2024/01/16 15:37:30;;;;;;;18.7;13.3;;;;;;;;;;;;;
2024/01/16 15:39:55;;;;;;;23.6;15.9;;;;;;;;;;;;;
2024/01/16 15:42:20;;;;;;;21.7;13.4;;;;;;;;;;;;;
2024/01/16 15:44:46;;;;;;;28.3;18.2;;;;;;;;;;;;;
2024/01/16 15:47:11;;;;;;;36;22.4;;;;;;;;;;;;;
2024/01/16 15:49:38;;;;;;;30.3;19.6;;;;;;;;;;;;;
2024/01/16 15:52:03;;;;;;;28.6;18.8;;;;;;;;;;;;;
2024/01/16 15:54:30;;;;;;;34.3;20.2;;;;;;;;;;;;;
2024/01/16 15:56:53;;;;;;;22.5;15;;;;;;;;;;;;;
2024/01/16 15:59:20;;;;;;;18.4;12.1;;;;;;;;;;;;;
2024/01/16 16:01:45;;;;;;;27.1;16.9;;;;;;;;;;;;;
2024/01/16 16:04:13;;;;;;;19.8;13.5;;;;;;;;;;;;;
2024/01/16 16:06:38;;;;;;;22.3;15.4;;;;;;;;;;;;;
2024/01/16 16:09:08;;;;;;;24.8;15.6;;;;;;;;;;;;;
2024/01/16 16:11:38;;;;;;;21.8;13.2;;;;;;;;;;;;;
2024/01/16 16:14:03;;;;;;;18.6;11.6;;;;;;;;;;;;;
2024/01/16 16:16:31;;;;;;;13.1;8.5;;;;;;;;;;;;;
2024/01/16 16:18:56;;;;;;;12.3;8.6;;;;;;;;;;;;;
2024/01/16 16:21:22;;;;;;;16.4;10.3;;;;;;;;;;;;;
2024/01/16 16:23:47;;;;;;;20.7;12.3;;;;;;;;;;;;;
2024/01/16 16:26:14;;;;;;;16.4;11.1;;;;;;;;;;;;;
2024/01/16 16:28:40;;;;;;;18.2;11.3;;;;;;;;;;;;;
2024/01/16 16:31:05;;;;;;;13.1;9.1;;;;;;;;;;;;;
2024/01/16 16:33:32;;;;;;;13.3;9.7;;;;;;;;;;;;;
2024/01/16 16:35:57;;;;;;;15.6;10.7;;;;;;;;;;;;;
2024/01/16 16:38:23;;;;;;;18.6;11.5;;;;;;;;;;;;;
2024/01/16 16:40:47;;;;;;;27.2;17.1;;;;;;;;;;;;;
2024/01/16 16:43:14;;;;;;;51.7;29.4;;;;;;;;;;;;;
2024/01/16 16:45:39;;;;;;;59;32;;;;;;;;;;;;;
2024/01/16 16:48:04;;;;;;;64.5;36;;;;;;;;;;;;;
2024/01/16 16:50:29;;;;;;;80.8;44.8;;;;;;;;;;;;;
2024/01/16 16:53:02;;;;;;;29.8;20.2;;;;;;;;;;;;;
2024/01/16 16:55:27;;;;;;;23.4;15.4;;;;;;;;;;;;;
2024/01/16 16:57:54;;;;;;;31.3;16.7;;;;;;;;;;;;;
2024/01/16 17:00:19;;;;;;;31.1;18.9;;;;;;;;;;;;;
2024/01/16 17:02:48;;;;;;;31.1;19.3;;;;;;;;;;;;;
2024/01/16 17:05:18;;;;;;;48;27.4;;;;;;;;;;;;;
2024/01/16 17:07:44;;;;;;;45.4;25.2;;;;;;;;;;;;;
2024/01/16 17:10:15;;;;;;;69;38.4;;;;;;;;;;;;;
2024/01/16 17:12:45;;;;;;;67.7;36.4;;;;;;;;;;;;;
2024/01/16 17:15:09;;;;;;;86.8;44.4;;;;;;;;;;;;;
2024/01/16 17:17:36;;;;;;;74.1;37.9;;;;;;;;;;;;;
2024/01/16 17:20:01;;;;;;;65.3;33.9;;;;;;;;;;;;;
2024/01/16 17:22:30;;;;;;;38.7;23.3;;;;;;;;;;;;;
2024/01/16 17:24:58;;;;;;;34.1;21;;;;;;;;;;;;;
2024/01/16 17:27:26;;;;;;;36;21.8;;;;;;;;;;;;;
2024/01/16 17:29:48;;;;;;;79.8;46.4;;;;;;;;;;;;;
2024/01/16 17:32:13;;;;;;;74.5;41.8;;;;;;;;;;;;;
2024/01/16 17:34:38;;;;;;;26.3;16.8;;;;;;;;;;;;;
2024/01/16 17:37:07;;;;;;;25.2;15.9;;;;;;;;;;;;;
2024/01/16 17:39:31;;;;;;;138.9;70.7;;;;;;;;;;;;;
2024/01/16 17:41:57;;;;;;;84.7;46.4;;;;;;;;;;;;;
2024/01/16 17:44:23;;;;;;;183.6;113.1;;;;;;;;;;;;;
2024/01/16 17:46:50;;;;;;;94;55.1;;;;;;;;;;;;;
2024/01/16 17:49:16;;;;;;;93.5;52.2;;;;;;;;;;;;;
2024/01/16 17:51:44;;;;;;;74.9;42.5;;;;;;;;;;;;;
2024/01/16 17:54:09;;;;;;;36.1;20.2;;;;;;;;;;;;;
2024/01/16 17:56:38;;;;;;;32.7;20.3;;;;;;;;;;;;;
2024/01/16 17:59:06;;;;;;;40.2;26.3;;;;;;;;;;;;;
2024/01/16 18:01:32;;;;;;;42.9;26.2;;;;;;;;;;;;;
2024/01/16 18:03:57;;;;;;;35.3;22.3;;;;;;;;;;;;;
2024/01/16 18:06:22;;;;;;;47.9;27.4;;;;;;;;;;;;;
2024/01/16 18:08:51;;;;;;;106.6;58;;;;;;;;;;;;;
2024/01/16 18:11:16;;;;;;;79.4;43.8;;;;;;;;;;;;;
2024/01/16 18:13:43;;;;;;;48.3;27.4;;;;;;;;;;;;;
2024/01/16 18:16:07;;;;;;;64.8;34.9;;;;;;;;;;;;;
2024/01/16 18:18:36;;;;;;;214.2;105.7;;;;;;;;;;;;;
2024/01/16 18:21:00;;;;;;;66.8;36.3;;;;;;;;;;;;;
2024/01/16 18:23:26;;;;;;;38.6;24.6;;;;;;;;;;;;;
2024/01/16 18:25:51;;;;;;;32.7;21;;;;;;;;;;;;;
2024/01/16 18:28:20;;;;;;;28.6;18.5;;;;;;;;;;;;;
2024/01/16 18:30:43;;;;;;;22.9;14.9;;;;;;;;;;;;;
2024/01/16 18:33:11;;;;;;;21.7;15.8;;;;;;;;;;;;;
2024/01/16 18:35:36;;;;;;;32.6;22.6;;;;;;;;;;;;;
2024/01/16 18:38:01;;;;;;;70.2;36.5;;;;;;;;;;;;;
2024/01/16 18:40:26;;;;;;;26.2;17;;;;;;;;;;;;;
2024/01/16 18:42:55;;;;;;;42.7;25.3;;;;;;;;;;;;;
2024/01/16 18:45:21;;;;;;;63.5;35.6;;;;;;;;;;;;;
2024/01/16 18:47:50;;;;;;;46;26.2;;;;;;;;;;;;;
2024/01/16 18:50:17;;;;;;;56.2;33.1;;;;;;;;;;;;;
2024/01/16 18:52:41;;;;;;;34.3;24.2;;;;;;;;;;;;;
2024/01/16 18:55:13;;;;;;;23.6;16.8;;;;;;;;;;;;;
2024/01/16 18:57:39;;;;;;;31.9;21.2;;;;;;;;;;;;;
2024/01/16 19:00:04;;;;;;;33.4;21.9;;;;;;;;;;;;;
2024/01/16 19:02:30;;;;;;;36.4;22.7;;;;;;;;;;;;;
2024/01/16 19:04:55;;;;;;;38;24.8;;;;;;;;;;;;;
2024/01/16 19:07:20;;;;;;;38.4;24;;;;;;;;;;;;;
2024/01/16 19:09:45;;;;;;;35;22.3;;;;;;;;;;;;;
2024/01/16 19:12:12;;;;;;;38.2;24.2;;;;;;;;;;;;;
2024/01/16 19:14:36;;;;;;;37.3;23.9;;;;;;;;;;;;;
2024/01/16 19:17:03;;;;;;;44.8;26.7;;;;;;;;;;;;;
2024/01/16 19:19:29;;;;;;;51.7;30.4;;;;;;;;;;;;;
2024/01/16 19:21:57;;;;;;;47.5;26.9;;;;;;;;;;;;;
2024/01/16 19:24:20;;;;;;;47.9;28;;;;;;;;;;;;;
2024/01/16 19:26:45;;;;;;;60.5;38.4;;;;;;;;;;;;;
2024/01/16 19:29:10;;;;;;;134.6;83.4;;;;;;;;;;;;;
2024/01/16 19:31:37;;;;;;;129.5;79.1;;;;;;;;;;;;;
2024/01/16 19:34:02;;;;;;;55.6;34.9;;;;;;;;;;;;;
2024/01/16 19:36:29;;;;;;;51.6;37.3;;;;;;;;;;;;;
2024/01/16 19:38:54;;;;;;;36.1;27.1;;;;;;;;;;;;;
2024/01/16 19:41:21;;;;;;;27.4;20.5;;;;;;;;;;;;;
2024/01/16 19:43:47;;;;;;;26.1;20;;;;;;;;;;;;;
2024/01/16 19:46:13;;;;;;;20.7;14.2;;;;;;;;;;;;;
2024/01/16 19:48:38;;;;;;;20.4;13.3;;;;;;;;;;;;;
2024/01/16 19:51:05;;;;;;;17.7;12;;;;;;;;;;;;;
2024/01/16 19:53:30;;;;;;;19.7;14.4;;;;;;;;;;;;;
2024/01/16 19:55:58;;;;;;;22.6;14.5;;;;;;;;;;;;;
2024/01/16 19:58:21;;;;;;;24.4;14.9;;;;;;;;;;;;;
2024/01/16 20:00:47;;;;;;;28.3;18.8;;;;;;;;;;;;;
2024/01/16 20:03:12;;;;;;;31.8;19.4;;;;;;;;;;;;;
2024/01/16 20:05:42;;;;;;;32.2;19.3;;;;;;;;;;;;;
2024/01/16 20:08:03;;;;;;;40.2;26.1;;;;;;;;;;;;;
2024/01/16 20:10:30;;;;;;;42.9;27.3;;;;;;;;;;;;;
2024/01/16 20:12:55;;;;;;;36.2;22.4;;;;;;;;;;;;;
2024/01/16 20:15:21;;;;;;;58.1;27.8;;;;;;;;;;;;;